sensor_id;sensor_type;location;lat;lon;timestamp;temperature;humidity
15888;DHT22;56032;51.324;12.376;2022-08-19T00:02:00;20.60;99.90
15888;DHT22;56032;51.324;12.376;2022-08-19T00:04:29;20.50;99.90
15888;DHT22;56032;51.324;12.376;2022-08-19T00:06:58;20.50;99.90
15888;DHT22;56032;51.324;12.376;2022-08-19T00:09:27;20.40;99.90
15888;DHT22;56032;51.324;12.376;2022-08-19T00:11:55;20.50;99.90
15888;DHT22;56032;51.324;12.376;2022-08-19T00:14:24;20.50;99.90
15888;DHT22;56032;51.324;12.376;2022-08-19T00:16:54;20.60;99.90
15888;DHT22;56032;51.324;12.376;2022-08-19T00:19:24;20.60;99.90
15888;DHT22;56032;51.324;12.376;2022-08-19T00:21:52;20.60;99.90
15888;DHT22;56032;51.324;12.376;2022-08-19T00:24:23;20.70;99.90
15888;DHT22;56032;51.324;12.376;2022-08-19T00:26:51;20.60;99.90
15888;DHT22;56032;51.324;12.376;2022-08-19T00:29:20;20.60;99.90
15888;DHT22;56032;51.324;12.376;2022-08-19T00:31:48;20.60;99.90
15888;DHT22;56032;51.324;12.376;2022-08-19T00:34:19;20.50;99.90
15888;DHT22;56032;51.324;12.376;2022-08-19T00:36:50;20.40;99.90
15888;DHT22;56032;51.324;12.376;2022-08-19T00:39:18;20.40;99.90
15888;DHT22;56032;51.324;12.376;2022-08-19T00:41:47;20.30;99.90
15888;DHT22;56032;51.324;12.376;2022-08-19T00:44:19;20.30;99.90
15888;DHT22;56032;51.324;12.376;2022-08-19T00:46:53;20.30;99.90
15888;DHT22;56032;51.324;12.376;2022-08-19T00:49:25;20.40;99.90
15888;DHT22;56032;51.324;12.376;2022-08-19T00:51:57;20.40;99.90
15888;DHT22;56032;51.324;12.376;2022-08-19T00:54:28;20.40;99.90
15888;DHT22;56032;51.324;12.376;2022-08-19T00:56:58;20.40;99.90
15888;DHT22;56032;51.324;12.376;2022-08-19T00:59:27;20.40;99.90
15888;DHT22;56032;51.324;12.376;2022-08-19T01:02:17;20.40;99.90
15888;DHT22;56032;51.324;12.376;2022-08-19T01:04:46;20.40;99.90
15888;DHT22;56032;51.324;12.376;2022-08-19T01:07:16;20.40;99.90
15888;DHT22;56032;51.324;12.376;2022-08-19T01:09:45;20.30;99.90
15888;DHT22;56032;51.324;12.376;2022-08-19T01:12:14;20.30;99.90
15888;DHT22;56032;51.324;12.376;2022-08-19T01:14:43;20.30;99.90
15888;DHT22;56032;51.324;12.376;2022-08-19T01:17:13;20.20;99.90
15888;DHT22;56032;51.324;12.376;2022-08-19T01:19:42;20.20;99.90
15888;DHT22;56032;51.324;12.376;2022-08-19T01:22:12;20.20;99.90
15888;DHT22;56032;51.324;12.376;2022-08-19T01:24:44;20.20;99.90
15888;DHT22;56032;51.324;12.376;2022-08-19T01:27:15;20.30;99.90
15888;DHT22;56032;51.324;12.376;2022-08-19T01:29:46;20.30;99.90
15888;DHT22;56032;51.324;12.376;2022-08-19T01:32:16;20.30;99.90
15888;DHT22;56032;51.324;12.376;2022-08-19T01:34:59;20.30;99.90
15888;DHT22;56032;51.324;12.376;2022-08-19T01:37:29;20.30;99.90
15888;DHT22;56032;51.324;12.376;2022-08-19T01:39:59;20.30;99.90
15888;DHT22;56032;51.324;12.376;2022-08-19T01:42:33;20.20;99.90
15888;DHT22;56032;51.324;12.376;2022-08-19T01:45:02;20.30;99.90
15888;DHT22;56032;51.324;12.376;2022-08-19T01:47:30;20.30;99.90
15888;DHT22;56032;51.324;12.376;2022-08-19T01:49:59;20.20;99.90
15888;DHT22;56032;51.324;12.376;2022-08-19T01:52:27;20.20;99.90
15888;DHT22;56032;51.324;12.376;2022-08-19T01:54:56;20.20;99.90
15888;DHT22;56032;51.324;12.376;2022-08-19T01:57:26;20.20;99.90
15888;DHT22;56032;51.324;12.376;2022-08-19T01:59:54;20.20;99.90
15888;DHT22;56032;51.324;12.376;2022-08-19T02:02:23;20.10;99.90
15888;DHT22;56032;51.324;12.376;2022-08-19T02:04:52;20.20;99.90
15888;DHT22;56032;51.324;12.376;2022-08-19T02:07:21;20.10;99.90
15888;DHT22;56032;51.324;12.376;2022-08-19T02:09:49;20.20;99.90
15888;DHT22;56032;51.324;12.376;2022-08-19T02:12:17;20.20;99.90
15888;DHT22;56032;51.324;12.376;2022-08-19T02:14:47;20.20;99.90
15888;DHT22;56032;51.324;12.376;2022-08-19T02:17:15;20.20;99.90
15888;DHT22;56032;51.324;12.376;2022-08-19T02:19:44;20.20;99.90
15888;DHT22;56032;51.324;12.376;2022-08-19T02:22:13;20.10;99.90
15888;DHT22;56032;51.324;12.376;2022-08-19T02:24:41;20.20;99.90
15888;DHT22;56032;51.324;12.376;2022-08-19T02:27:10;20.20;99.90
15888;DHT22;56032;51.324;12.376;2022-08-19T02:29:38;20.20;99.90
15888;DHT22;56032;51.324;12.376;2022-08-19T02:32:09;20.20;99.90
15888;DHT22;56032;51.324;12.376;2022-08-19T02:34:37;20.20;99.90
15888;DHT22;56032;51.324;12.376;2022-08-19T02:37:05;20.20;99.90
15888;DHT22;56032;51.324;12.376;2022-08-19T02:39:54;20.20;99.90
15888;DHT22;56032;51.324;12.376;2022-08-19T02:42:21;20.20;99.90
15888;DHT22;56032;51.324;12.376;2022-08-19T02:44:50;20.20;99.90
15888;DHT22;56032;51.324;12.376;2022-08-19T02:47:20;20.20;99.90
15888;DHT22;56032;51.324;12.376;2022-08-19T02:49:48;20.20;99.90
15888;DHT22;56032;51.324;12.376;2022-08-19T02:52:17;20.20;99.90
15888;DHT22;56032;51.324;12.376;2022-08-19T02:54:45;20.20;99.90
15888;DHT22;56032;51.324;12.376;2022-08-19T02:57:16;20.20;99.90
15888;DHT22;56032;51.324;12.376;2022-08-19T02:59:44;20.20;99.90
15888;DHT22;56032;51.324;12.376;2022-08-19T03:02:12;20.30;99.90
15888;DHT22;56032;51.324;12.376;2022-08-19T03:04:42;20.30;99.90
15888;DHT22;56032;51.324;12.376;2022-08-19T03:07:12;20.30;99.90
15888;DHT22;56032;51.324;12.376;2022-08-19T03:09:41;20.40;99.90
15888;DHT22;56032;51.324;12.376;2022-08-19T03:12:10;20.40;99.90
15888;DHT22;56032;51.324;12.376;2022-08-19T03:14:38;20.40;99.90
15888;DHT22;56032;51.324;12.376;2022-08-19T03:17:07;20.40;99.90
15888;DHT22;56032;51.324;12.376;2022-08-19T03:19:35;20.40;99.90
15888;DHT22;56032;51.324;12.376;2022-08-19T03:22:06;20.40;99.90
15888;DHT22;56032;51.324;12.376;2022-08-19T03:24:34;20.40;99.90
15888;DHT22;56032;51.324;12.376;2022-08-19T03:27:03;20.30;99.90
15888;DHT22;56032;51.324;12.376;2022-08-19T03:29:32;20.40;99.90
15888;DHT22;56032;51.324;12.376;2022-08-19T03:32:09;20.40;99.90
15888;DHT22;56032;51.324;12.376;2022-08-19T03:34:57;20.40;99.90
15888;DHT22;56032;51.324;12.376;2022-08-19T03:37:27;20.50;99.90
15888;DHT22;56032;51.324;12.376;2022-08-19T03:39:55;20.50;99.90
15888;DHT22;56032;51.324;12.376;2022-08-19T03:42:24;20.50;99.90
15888;DHT22;56032;51.324;12.376;2022-08-19T03:44:59;20.50;99.90
15888;DHT22;56032;51.324;12.376;2022-08-19T03:47:27;20.60;99.90
15888;DHT22;56032;51.324;12.376;2022-08-19T03:49:55;20.60;99.90
15888;DHT22;56032;51.324;12.376;2022-08-19T03:52:23;20.60;99.90
15888;DHT22;56032;51.324;12.376;2022-08-19T03:54:53;20.60;99.90
15888;DHT22;56032;51.324;12.376;2022-08-19T03:57:21;20.60;99.90
15888;DHT22;56032;51.324;12.376;2022-08-19T03:59:58;20.50;99.90
15888;DHT22;56032;51.324;12.376;2022-08-19T04:02:39;20.40;99.90
15888;DHT22;56032;51.324;12.376;2022-08-19T04:05:24;20.50;99.90
15888;DHT22;56032;51.324;12.376;2022-08-19T04:07:54;20.30;99.90
15888;DHT22;56032;51.324;12.376;2022-08-19T04:10:25;20.40;99.90
15888;DHT22;56032;51.324;12.376;2022-08-19T04:12:53;20.40;99.90
15888;DHT22;56032;51.324;12.376;2022-08-19T04:15:21;20.40;99.90
15888;DHT22;56032;51.324;12.376;2022-08-19T04:17:50;20.30;99.90
15888;DHT22;56032;51.324;12.376;2022-08-19T04:20:18;20.30;99.90
15888;DHT22;56032;51.324;12.376;2022-08-19T04:22:46;20.30;99.90
15888;DHT22;56032;51.324;12.376;2022-08-19T04:25:15;20.40;99.90
15888;DHT22;56032;51.324;12.376;2022-08-19T04:27:44;20.30;99.90
15888;DHT22;56032;51.324;12.376;2022-08-19T04:30:13;20.30;99.90
15888;DHT22;56032;51.324;12.376;2022-08-19T04:32:41;20.30;99.90
15888;DHT22;56032;51.324;12.376;2022-08-19T04:35:11;20.20;99.90
15888;DHT22;56032;51.324;12.376;2022-08-19T04:37:44;20.20;99.90
15888;DHT22;56032;51.324;12.376;2022-08-19T04:40:12;20.20;99.90
15888;DHT22;56032;51.324;12.376;2022-08-19T04:42:59;20.20;99.90
15888;DHT22;56032;51.324;12.376;2022-08-19T04:45:28;20.20;99.90
15888;DHT22;56032;51.324;12.376;2022-08-19T04:48:09;20.20;99.90
15888;DHT22;56032;51.324;12.376;2022-08-19T04:50:53;20.20;99.90
15888;DHT22;56032;51.324;12.376;2022-08-19T04:53:24;20.30;99.90
15888;DHT22;56032;51.324;12.376;2022-08-19T04:56:05;20.30;99.90
15888;DHT22;56032;51.324;12.376;2022-08-19T04:58:36;20.30;99.90
15888;DHT22;56032;51.324;12.376;2022-08-19T05:01:04;20.20;99.90
15888;DHT22;56032;51.324;12.376;2022-08-19T05:03:33;20.20;99.90
15888;DHT22;56032;51.324;12.376;2022-08-19T05:06:04;20.30;99.90
15888;DHT22;56032;51.324;12.376;2022-08-19T05:08:35;20.30;99.90
15888;DHT22;56032;51.324;12.376;2022-08-19T05:11:07;20.30;99.90
15888;DHT22;56032;51.324;12.376;2022-08-19T05:13:41;20.30;99.90
15888;DHT22;56032;51.324;12.376;2022-08-19T05:16:10;20.30;99.90
15888;DHT22;56032;51.324;12.376;2022-08-19T05:18:39;20.30;99.90
15888;DHT22;56032;51.324;12.376;2022-08-19T05:21:26;20.30;99.90
15888;DHT22;56032;51.324;12.376;2022-08-19T05:24:12;20.30;99.90
15888;DHT22;56032;51.324;12.376;2022-08-19T05:26:42;20.30;99.90
15888;DHT22;56032;51.324;12.376;2022-08-19T05:29:15;20.30;99.90
15888;DHT22;56032;51.324;12.376;2022-08-19T05:31:44;20.30;99.90
15888;DHT22;56032;51.324;12.376;2022-08-19T05:34:13;20.30;99.90
15888;DHT22;56032;51.324;12.376;2022-08-19T05:36:45;20.40;99.90
15888;DHT22;56032;51.324;12.376;2022-08-19T05:39:15;20.40;99.90
15888;DHT22;56032;51.324;12.376;2022-08-19T05:41:44;20.30;99.90
15888;DHT22;56032;51.324;12.376;2022-08-19T05:44:13;20.30;99.90
15888;DHT22;56032;51.324;12.376;2022-08-19T05:46:44;20.30;99.90
15888;DHT22;56032;51.324;12.376;2022-08-19T05:49:14;20.40;99.90
15888;DHT22;56032;51.324;12.376;2022-08-19T05:51:43;20.30;99.90
15888;DHT22;56032;51.324;12.376;2022-08-19T05:54:11;20.40;99.90
15888;DHT22;56032;51.324;12.376;2022-08-19T05:56:41;20.30;99.90
15888;DHT22;56032;51.324;12.376;2022-08-19T05:59:09;20.30;99.90
15888;DHT22;56032;51.324;12.376;2022-08-19T06:01:38;20.30;99.90
15888;DHT22;56032;51.324;12.376;2022-08-19T06:04:08;20.30;99.90
15888;DHT22;56032;51.324;12.376;2022-08-19T06:06:37;20.30;99.90
15888;DHT22;56032;51.324;12.376;2022-08-19T06:09:06;20.30;99.90
15888;DHT22;56032;51.324;12.376;2022-08-19T06:11:35;20.30;99.90
15888;DHT22;56032;51.324;12.376;2022-08-19T06:14:05;20.40;99.90
15888;DHT22;56032;51.324;12.376;2022-08-19T06:16:42;20.40;99.90
15888;DHT22;56032;51.324;12.376;2022-08-19T06:19:13;20.40;99.90
15888;DHT22;56032;51.324;12.376;2022-08-19T06:21:43;20.50;99.90
15888;DHT22;56032;51.324;12.376;2022-08-19T06:24:13;20.50;99.90
15888;DHT22;56032;51.324;12.376;2022-08-19T06:26:43;20.50;99.90
15888;DHT22;56032;51.324;12.376;2022-08-19T06:29:18;20.50;99.90
15888;DHT22;56032;51.324;12.376;2022-08-19T06:31:50;20.40;99.90
15888;DHT22;56032;51.324;12.376;2022-08-19T06:34:20;20.50;99.90
15888;DHT22;56032;51.324;12.376;2022-08-19T06:36:50;20.50;99.90
15888;DHT22;56032;51.324;12.376;2022-08-19T06:39:20;20.40;99.90
15888;DHT22;56032;51.324;12.376;2022-08-19T06:41:49;20.50;99.90
15888;DHT22;56032;51.324;12.376;2022-08-19T06:44:24;20.40;99.90
15888;DHT22;56032;51.324;12.376;2022-08-19T06:46:54;20.40;99.90
15888;DHT22;56032;51.324;12.376;2022-08-19T06:49:24;20.40;99.90
15888;DHT22;56032;51.324;12.376;2022-08-19T06:51:54;20.50;99.90
15888;DHT22;56032;51.324;12.376;2022-08-19T06:54:23;20.50;99.90
15888;DHT22;56032;51.324;12.376;2022-08-19T06:56:56;20.50;99.90
15888;DHT22;56032;51.324;12.376;2022-08-19T06:59:25;20.50;99.90
15888;DHT22;56032;51.324;12.376;2022-08-19T07:01:56;20.40;99.90
15888;DHT22;56032;51.324;12.376;2022-08-19T07:04:27;20.40;99.90
15888;DHT22;56032;51.324;12.376;2022-08-19T07:06:57;20.30;99.90
15888;DHT22;56032;51.324;12.376;2022-08-19T07:09:46;20.30;99.90
15888;DHT22;56032;51.324;12.376;2022-08-19T07:12:26;20.30;99.90
15888;DHT22;56032;51.324;12.376;2022-08-19T07:14:56;20.30;99.90
15888;DHT22;56032;51.324;12.376;2022-08-19T07:17:25;20.30;99.90
15888;DHT22;56032;51.324;12.376;2022-08-19T07:19:55;20.30;99.90
15888;DHT22;56032;51.324;12.376;2022-08-19T07:22:31;20.30;99.90
15888;DHT22;56032;51.324;12.376;2022-08-19T07:25:00;20.20;99.90
15888;DHT22;56032;51.324;12.376;2022-08-19T07:27:30;20.20;99.90
15888;DHT22;56032;51.324;12.376;2022-08-19T07:29:59;20.20;99.90
15888;DHT22;56032;51.324;12.376;2022-08-19T07:32:28;20.30;99.90
15888;DHT22;56032;51.324;12.376;2022-08-19T07:34:59;20.30;99.90
15888;DHT22;56032;51.324;12.376;2022-08-19T07:37:30;20.30;99.90
15888;DHT22;56032;51.324;12.376;2022-08-19T07:39:59;20.40;99.90
15888;DHT22;56032;51.324;12.376;2022-08-19T07:42:28;20.40;99.90
15888;DHT22;56032;51.324;12.376;2022-08-19T07:44:57;20.30;99.90
15888;DHT22;56032;51.324;12.376;2022-08-19T07:47:29;20.40;99.90
15888;DHT22;56032;51.324;12.376;2022-08-19T07:50:18;20.50;99.90
15888;DHT22;56032;51.324;12.376;2022-08-19T07:52:47;20.60;99.90
15888;DHT22;56032;51.324;12.376;2022-08-19T07:55:17;20.50;99.90
15888;DHT22;56032;51.324;12.376;2022-08-19T07:58:06;20.40;99.90
15888;DHT22;56032;51.324;12.376;2022-08-19T08:00:36;20.30;99.90
15888;DHT22;56032;51.324;12.376;2022-08-19T08:03:04;20.30;99.90
15888;DHT22;56032;51.324;12.376;2022-08-19T08:05:34;20.40;99.90
15888;DHT22;56032;51.324;12.376;2022-08-19T08:08:20;20.30;99.90
15888;DHT22;56032;51.324;12.376;2022-08-19T08:11:10;20.40;99.90
15888;DHT22;56032;51.324;12.376;2022-08-19T08:13:41;20.40;99.90
15888;DHT22;56032;51.324;12.376;2022-08-19T08:16:09;20.40;99.90
15888;DHT22;56032;51.324;12.376;2022-08-19T08:18:40;20.50;99.90
15888;DHT22;56032;51.324;12.376;2022-08-19T08:21:17;20.50;99.90
15888;DHT22;56032;51.324;12.376;2022-08-19T08:23:46;20.30;99.90
15888;DHT22;56032;51.324;12.376;2022-08-19T08:26:14;20.40;99.90
15888;DHT22;56032;51.324;12.376;2022-08-19T08:28:46;20.30;99.90
15888;DHT22;56032;51.324;12.376;2022-08-19T08:31:15;20.30;99.90
15888;DHT22;56032;51.324;12.376;2022-08-19T08:33:46;20.30;99.90
15888;DHT22;56032;51.324;12.376;2022-08-19T08:36:15;20.30;99.90
15888;DHT22;56032;51.324;12.376;2022-08-19T08:38:45;20.40;99.90
15888;DHT22;56032;51.324;12.376;2022-08-19T08:41:17;20.30;99.90
15888;DHT22;56032;51.324;12.376;2022-08-19T08:43:48;20.30;99.90
15888;DHT22;56032;51.324;12.376;2022-08-19T08:46:20;20.30;99.90
15888;DHT22;56032;51.324;12.376;2022-08-19T08:48:59;20.20;99.90
15888;DHT22;56032;51.324;12.376;2022-08-19T08:51:32;20.30;99.90
15888;DHT22;56032;51.324;12.376;2022-08-19T08:54:04;20.30;99.90
15888;DHT22;56032;51.324;12.376;2022-08-19T08:56:37;20.30;99.90
15888;DHT22;56032;51.324;12.376;2022-08-19T08:59:07;20.20;99.90
15888;DHT22;56032;51.324;12.376;2022-08-19T09:01:36;20.30;99.90
15888;DHT22;56032;51.324;12.376;2022-08-19T09:04:05;20.40;99.90
15888;DHT22;56032;51.324;12.376;2022-08-19T09:06:36;20.40;99.90
15888;DHT22;56032;51.324;12.376;2022-08-19T09:09:12;20.30;99.90
15888;DHT22;56032;51.324;12.376;2022-08-19T09:11:46;20.30;99.90
15888;DHT22;56032;51.324;12.376;2022-08-19T09:14:18;20.20;99.90
15888;DHT22;56032;51.324;12.376;2022-08-19T09:17:09;20.30;99.90
15888;DHT22;56032;51.324;12.376;2022-08-19T09:19:46;20.30;99.90
15888;DHT22;56032;51.324;12.376;2022-08-19T09:22:15;20.30;99.90
15888;DHT22;56032;51.324;12.376;2022-08-19T09:24:53;20.40;99.90
15888;DHT22;56032;51.324;12.376;2022-08-19T09:27:22;20.30;99.90
15888;DHT22;56032;51.324;12.376;2022-08-19T09:30:13;20.40;99.90
15888;DHT22;56032;51.324;12.376;2022-08-19T09:32:42;20.50;99.90
15888;DHT22;56032;51.324;12.376;2022-08-19T09:35:12;20.60;99.90
15888;DHT22;56032;51.324;12.376;2022-08-19T09:37:41;20.60;99.90
15888;DHT22;56032;51.324;12.376;2022-08-19T09:40:12;20.60;99.90
15888;DHT22;56032;51.324;12.376;2022-08-19T09:42:41;20.70;99.90
15888;DHT22;56032;51.324;12.376;2022-08-19T09:45:19;20.60;99.90
15888;DHT22;56032;51.324;12.376;2022-08-19T09:47:49;20.60;99.90
15888;DHT22;56032;51.324;12.376;2022-08-19T09:50:20;20.80;99.90
15888;DHT22;56032;51.324;12.376;2022-08-19T09:52:49;20.90;99.90
15888;DHT22;56032;51.324;12.376;2022-08-19T09:55:24;20.80;99.90
15888;DHT22;56032;51.324;12.376;2022-08-19T09:58:01;20.80;99.90
15888;DHT22;56032;51.324;12.376;2022-08-19T10:00:29;20.80;99.90
15888;DHT22;56032;51.324;12.376;2022-08-19T10:02:58;20.70;99.90
15888;DHT22;56032;51.324;12.376;2022-08-19T10:05:29;20.70;99.90
15888;DHT22;56032;51.324;12.376;2022-08-19T10:08:15;20.70;99.90
15888;DHT22;56032;51.324;12.376;2022-08-19T10:10:48;20.60;99.90
15888;DHT22;56032;51.324;12.376;2022-08-19T10:13:18;20.70;99.90
15888;DHT22;56032;51.324;12.376;2022-08-19T10:15:48;20.90;99.90
15888;DHT22;56032;51.324;12.376;2022-08-19T10:18:19;21.10;99.90
15888;DHT22;56032;51.324;12.376;2022-08-19T10:20:47;21.00;99.90
15888;DHT22;56032;51.324;12.376;2022-08-19T10:23:17;21.10;99.90
15888;DHT22;56032;51.324;12.376;2022-08-19T10:25:48;21.30;99.90
15888;DHT22;56032;51.324;12.376;2022-08-19T10:28:20;21.50;99.90
15888;DHT22;56032;51.324;12.376;2022-08-19T10:30:49;21.50;99.90
15888;DHT22;56032;51.324;12.376;2022-08-19T10:33:18;21.60;99.90
15888;DHT22;56032;51.324;12.376;2022-08-19T10:36:07;21.60;99.90
15888;DHT22;56032;51.324;12.376;2022-08-19T10:38:36;21.60;99.90
15888;DHT22;56032;51.324;12.376;2022-08-19T10:41:18;21.50;99.90
15888;DHT22;56032;51.324;12.376;2022-08-19T10:43:50;21.50;99.90
15888;DHT22;56032;51.324;12.376;2022-08-19T10:46:21;21.40;99.90
15888;DHT22;56032;51.324;12.376;2022-08-19T10:48:51;21.20;99.90
15888;DHT22;56032;51.324;12.376;2022-08-19T10:51:19;21.20;99.90
15888;DHT22;56032;51.324;12.376;2022-08-19T10:54:13;21.20;99.90
15888;DHT22;56032;51.324;12.376;2022-08-19T10:56:44;21.20;99.90
15888;DHT22;56032;51.324;12.376;2022-08-19T10:59:23;21.30;99.90
15888;DHT22;56032;51.324;12.376;2022-08-19T11:02:00;21.30;99.90
15888;DHT22;56032;51.324;12.376;2022-08-19T11:04:28;21.40;99.90
15888;DHT22;56032;51.324;12.376;2022-08-19T11:06:58;21.50;99.90
15888;DHT22;56032;51.324;12.376;2022-08-19T11:09:26;21.50;99.90
15888;DHT22;56032;51.324;12.376;2022-08-19T11:12:01;21.50;99.90
15888;DHT22;56032;51.324;12.376;2022-08-19T11:14:30;21.40;99.90
15888;DHT22;56032;51.324;12.376;2022-08-19T11:17:00;21.20;99.90
15888;DHT22;56032;51.324;12.376;2022-08-19T11:19:29;21.00;99.90
15888;DHT22;56032;51.324;12.376;2022-08-19T11:21:58;21.00;99.90
15888;DHT22;56032;51.324;12.376;2022-08-19T11:24:29;21.20;99.90
15888;DHT22;56032;51.324;12.376;2022-08-19T11:27:02;21.20;99.90
15888;DHT22;56032;51.324;12.376;2022-08-19T11:29:33;21.30;99.90
15888;DHT22;56032;51.324;12.376;2022-08-19T11:32:03;21.20;99.90
15888;DHT22;56032;51.324;12.376;2022-08-19T11:34:32;21.40;99.90
15888;DHT22;56032;51.324;12.376;2022-08-19T11:37:02;21.40;99.90
15888;DHT22;56032;51.324;12.376;2022-08-19T11:39:31;21.40;99.90
15888;DHT22;56032;51.324;12.376;2022-08-19T11:42:02;21.70;99.90
15888;DHT22;56032;51.324;12.376;2022-08-19T11:44:51;21.60;99.90
15888;DHT22;56032;51.324;12.376;2022-08-19T11:47:20;21.60;99.90
15888;DHT22;56032;51.324;12.376;2022-08-19T11:49:49;21.70;99.90
15888;DHT22;56032;51.324;12.376;2022-08-19T11:52:18;21.70;99.90
15888;DHT22;56032;51.324;12.376;2022-08-19T11:54:47;21.80;99.90
15888;DHT22;56032;51.324;12.376;2022-08-19T11:57:16;21.90;99.90
15888;DHT22;56032;51.324;12.376;2022-08-19T11:59:49;22.00;99.90
15888;DHT22;56032;51.324;12.376;2022-08-19T12:02:18;22.00;99.90
15888;DHT22;56032;51.324;12.376;2022-08-19T12:04:46;22.00;99.90
15888;DHT22;56032;51.324;12.376;2022-08-19T12:07:17;22.00;99.90
15888;DHT22;56032;51.324;12.376;2022-08-19T12:12:35;22.30;99.90
15888;DHT22;56032;51.324;12.376;2022-08-19T12:15:07;22.40;99.90
15888;DHT22;56032;51.324;12.376;2022-08-19T12:17:38;22.40;99.90
15888;DHT22;56032;51.324;12.376;2022-08-19T12:20:07;22.30;99.90
15888;DHT22;56032;51.324;12.376;2022-08-19T12:22:37;22.20;99.90
15888;DHT22;56032;51.324;12.376;2022-08-19T12:25:07;22.50;99.90
15888;DHT22;56032;51.324;12.376;2022-08-19T12:27:37;22.90;99.90
15888;DHT22;56032;51.324;12.376;2022-08-19T12:30:10;23.30;99.90
15888;DHT22;56032;51.324;12.376;2022-08-19T12:32:39;23.40;99.90
15888;DHT22;56032;51.324;12.376;2022-08-19T12:35:08;23.20;99.90
15888;DHT22;56032;51.324;12.376;2022-08-19T12:37:38;23.10;99.90
15888;DHT22;56032;51.324;12.376;2022-08-19T12:40:09;22.90;99.90
15888;DHT22;56032;51.324;12.376;2022-08-19T12:42:40;23.00;99.90
15888;DHT22;56032;51.324;12.376;2022-08-19T12:45:09;23.00;99.90
15888;DHT22;56032;51.324;12.376;2022-08-19T12:47:38;23.00;99.90
15888;DHT22;56032;51.324;12.376;2022-08-19T12:50:11;23.20;99.90
15888;DHT22;56032;51.324;12.376;2022-08-19T12:52:40;23.30;99.90
15888;DHT22;56032;51.324;12.376;2022-08-19T12:55:09;23.50;99.90
15888;DHT22;56032;51.324;12.376;2022-08-19T12:57:40;23.60;99.90
15888;DHT22;56032;51.324;12.376;2022-08-19T13:00:10;23.60;99.90
15888;DHT22;56032;51.324;12.376;2022-08-19T13:02:41;23.50;99.90
15888;DHT22;56032;51.324;12.376;2022-08-19T13:05:11;23.50;99.90
15888;DHT22;56032;51.324;12.376;2022-08-19T13:07:40;23.50;99.90
15888;DHT22;56032;51.324;12.376;2022-08-19T13:10:12;23.30;99.90
15888;DHT22;56032;51.324;12.376;2022-08-19T13:12:43;23.50;99.90
15888;DHT22;56032;51.324;12.376;2022-08-19T13:15:12;23.60;99.90
15888;DHT22;56032;51.324;12.376;2022-08-19T13:17:41;23.40;99.90
15888;DHT22;56032;51.324;12.376;2022-08-19T13:20:09;23.20;99.90
15888;DHT22;56032;51.324;12.376;2022-08-19T13:22:38;23.20;99.90
15888;DHT22;56032;51.324;12.376;2022-08-19T13:25:07;23.30;99.90
15888;DHT22;56032;51.324;12.376;2022-08-19T13:27:35;23.30;99.90
15888;DHT22;56032;51.324;12.376;2022-08-19T13:30:07;23.30;99.90
15888;DHT22;56032;51.324;12.376;2022-08-19T13:32:53;23.10;99.90
15888;DHT22;56032;51.324;12.376;2022-08-19T13:35:44;22.90;99.90
15888;DHT22;56032;51.324;12.376;2022-08-19T13:38:13;22.80;99.90
15888;DHT22;56032;51.324;12.376;2022-08-19T13:40:42;22.80;99.90
15888;DHT22;56032;51.324;12.376;2022-08-19T13:43:10;22.70;99.90
15888;DHT22;56032;51.324;12.376;2022-08-19T13:45:50;22.60;99.90
15888;DHT22;56032;51.324;12.376;2022-08-19T13:48:23;22.50;99.90
15888;DHT22;56032;51.324;12.376;2022-08-19T13:50:54;22.70;99.90
15888;DHT22;56032;51.324;12.376;2022-08-19T13:53:23;22.80;99.90
15888;DHT22;56032;51.324;12.376;2022-08-19T13:55:52;22.70;99.90
15888;DHT22;56032;51.324;12.376;2022-08-19T13:58:21;22.60;99.90
15888;DHT22;56032;51.324;12.376;2022-08-19T14:00:53;22.50;99.90
15888;DHT22;56032;51.324;12.376;2022-08-19T14:03:22;22.40;99.90
15888;DHT22;56032;51.324;12.376;2022-08-19T14:05:50;22.40;99.90
15888;DHT22;56032;51.324;12.376;2022-08-19T14:08:19;22.40;99.90
15888;DHT22;56032;51.324;12.376;2022-08-19T14:10:47;22.50;99.90
15888;DHT22;56032;51.324;12.376;2022-08-19T14:13:17;22.80;99.90
15888;DHT22;56032;51.324;12.376;2022-08-19T14:15:46;22.70;99.90
15888;DHT22;56032;51.324;12.376;2022-08-19T14:18:17;22.70;99.90
15888;DHT22;56032;51.324;12.376;2022-08-19T14:20:45;22.70;99.90
15888;DHT22;56032;51.324;12.376;2022-08-19T14:23:16;22.70;99.90
15888;DHT22;56032;51.324;12.376;2022-08-19T14:25:44;22.70;99.90
15888;DHT22;56032;51.324;12.376;2022-08-19T14:28:15;22.70;99.90
15888;DHT22;56032;51.324;12.376;2022-08-19T14:30:43;22.70;99.90
15888;DHT22;56032;51.324;12.376;2022-08-19T14:33:12;22.80;99.90
15888;DHT22;56032;51.324;12.376;2022-08-19T14:35:43;22.80;99.90
15888;DHT22;56032;51.324;12.376;2022-08-19T14:38:15;22.70;99.90
15888;DHT22;56032;51.324;12.376;2022-08-19T14:40:47;22.80;99.90
15888;DHT22;56032;51.324;12.376;2022-08-19T14:43:20;22.90;99.90
15888;DHT22;56032;51.324;12.376;2022-08-19T14:45:49;22.80;99.90
15888;DHT22;56032;51.324;12.376;2022-08-19T14:48:18;22.80;99.90
15888;DHT22;56032;51.324;12.376;2022-08-19T14:50:56;22.70;99.90
15888;DHT22;56032;51.324;12.376;2022-08-19T14:53:24;22.70;99.90
15888;DHT22;56032;51.324;12.376;2022-08-19T14:55:53;22.60;99.90
15888;DHT22;56032;51.324;12.376;2022-08-19T14:58:22;22.60;99.90
15888;DHT22;56032;51.324;12.376;2022-08-19T15:00:56;22.50;99.90
15888;DHT22;56032;51.324;12.376;2022-08-19T15:03:25;22.60;99.90
15888;DHT22;56032;51.324;12.376;2022-08-19T15:05:55;22.60;99.90
15888;DHT22;56032;51.324;12.376;2022-08-19T15:08:25;22.60;99.90
15888;DHT22;56032;51.324;12.376;2022-08-19T15:10:54;22.60;99.90
15888;DHT22;56032;51.324;12.376;2022-08-19T15:13:22;22.70;99.90
15888;DHT22;56032;51.324;12.376;2022-08-19T15:15:51;22.70;99.90
15888;DHT22;56032;51.324;12.376;2022-08-19T15:18:20;22.60;99.90
15888;DHT22;56032;51.324;12.376;2022-08-19T15:20:48;22.50;99.90
15888;DHT22;56032;51.324;12.376;2022-08-19T15:23:19;22.50;99.90
15888;DHT22;56032;51.324;12.376;2022-08-19T15:25:47;22.50;99.90
15888;DHT22;56032;51.324;12.376;2022-08-19T15:28:22;22.50;99.90
15888;DHT22;56032;51.324;12.376;2022-08-19T15:30:51;22.40;99.90
15888;DHT22;56032;51.324;12.376;2022-08-19T15:33:21;22.30;99.90
15888;DHT22;56032;51.324;12.376;2022-08-19T15:35:49;22.20;99.90
15888;DHT22;56032;51.324;12.376;2022-08-19T15:38:19;22.20;99.90
15888;DHT22;56032;51.324;12.376;2022-08-19T15:40:50;22.20;99.90
15888;DHT22;56032;51.324;12.376;2022-08-19T15:43:19;22.30;99.90